Time;durP1;ratioP1;P1;durP2;ratioP2;P2;SDS_P1;SDS_P2;PMS_P1;PMS_P2;Temp;Humidity;BMP_temperature;BMP_pressure;BME280_temperature;BME280_humidity;BME280_pressure;Samples;Min_cycle;Max_cycle;Signal;HPM_P1;HPM_P2
2022/06/16 00:00:59;;;;;;;5.90;2.20;;;16.60;99.90;;;;;;5090888;28;20139;-72
2022/06/16 00:03:25;;;;;;;5.28;2.25;;;16.50;99.90;;;;;;5074867;28;20067;-72
2022/06/16 00:05:51;;;;;;;5.55;2.17;;;16.40;99.90;;;;;;5074660;28;20049;-72
2022/06/16 00:08:18;;;;;;;7.05;2.28;;;16.30;99.90;;;;;;5074929;28;20071;-73
2022/06/16 00:13:39;;;;;;;6.25;2.67;;;16.20;99.90;;;;;;5074436;28;20058;-73
2022/06/16 00:16:06;;;;;;;4.50;2.67;;;16.10;99.90;;;;;;5057574;28;20052;-73
2022/06/16 00:18:32;;;;;;;5.57;2.42;;;16.20;99.90;;;;;;5075004;28;20087;-72
2022/06/16 00:20:58;;;;;;;5.63;2.30;;;16.20;99.90;;;;;;5074640;28;20088;-72
2022/06/16 00:23:24;;;;;;;5.10;2.47;;;16.30;99.90;;;;;;5073461;28;20550;-72
2022/06/16 00:25:49;;;;;;;6.53;2.65;;;16.30;99.90;;;;;;5074629;28;20056;-72
2022/06/16 00:28:15;;;;;;;5.85;2.35;;;16.40;99.90;;;;;;5073825;28;20053;-72
2022/06/16 00:30:41;;;;;;;5.45;2.40;;;16.40;99.90;;;;;;5073808;28;20056;-72
2022/06/16 00:33:07;;;;;;;4.07;2.20;;;16.30;99.90;;;;;;5073673;28;20051;-72
2022/06/16 00:35:33;;;;;;;7.90;2.88;;;16.30;99.90;;;;;;5073503;28;20561;-73
2022/06/16 00:37:59;;;;;;;6.40;2.47;;;16.40;99.90;;;;;;5073382;28;20131;-73
2022/06/16 00:40:25;;;;;;;4.05;2.05;;;16.30;99.90;;;;;;5074759;28;20135;-72
2022/06/16 00:42:51;;;;;;;5.85;2.70;;;16.30;99.90;;;;;;5074489;28;20533;-72
2022/06/16 00:45:50;;;;;;;5.25;2.60;;;16.20;99.90;;;;;;5056898;28;20048;-72
2022/06/16 00:48:32;;;;;;;7.45;2.35;;;16.10;99.90;;;;;;5073923;28;20067;-72
2022/06/16 00:51:18;;;;;;;6.75;3.03;;;15.90;99.90;;;;;;5074033;28;20052;-72
2022/06/16 00:53:45;;;;;;;5.00;2.70;;;15.90;99.90;;;;;;5074255;28;20495;-72
2022/06/16 00:56:16;;;;;;;5.70;3.13;;;15.90;99.90;;;;;;5074076;28;20136;-72
2022/06/16 00:58:46;;;;;;;6.30;2.55;;;15.80;99.90;;;;;;5073443;28;20055;-72
2022/06/16 01:01:13;;;;;;;6.90;3.10;;;15.80;99.90;;;;;;5073496;28;20052;-72
2022/06/16 01:06:29;;;;;;;6.72;2.88;;;15.90;99.90;;;;;;5072883;28;20058;-72
2022/06/16 01:09:17;;;;;;;7.40;3.10;;;16.00;99.90;;;;;;5074137;28;20127;-72
2022/06/16 01:15:01;;;;;;;6.28;2.70;;;15.90;99.90;;;;;;5072690;28;20095;-73
2022/06/16 01:17:51;;;;;;;9.52;2.95;;;15.70;99.90;;;;;;5073436;28;20467;-72
2022/06/16 01:20:37;;;;;;;7.07;2.75;;;15.60;99.90;;;;;;5072714;28;20047;-73
2022/06/16 01:23:28;;;;;;;8.65;3.10;;;15.60;99.90;;;;;;5072963;28;20128;-72
2022/06/16 01:26:12;;;;;;;6.00;3.25;;;15.70;99.90;;;;;;5055793;28;20052;-72
2022/06/16 01:28:49;;;;;;;6.63;2.88;;;15.90;99.90;;;;;;5073173;28;20511;-72
2022/06/16 01:31:23;;;;;;;6.78;3.03;;;15.90;99.90;;;;;;5089549;28;20048;-72
2022/06/16 01:33:58;;;;;;;4.63;2.53;;;15.80;99.90;;;;;;5073415;28;20044;-73
2022/06/16 01:36:34;;;;;;;5.30;2.65;;;15.80;99.90;;;;;;5090412;28;20109;-73
2022/06/16 01:39:12;;;;;;;6.78;3.03;;;15.80;99.90;;;;;;5074168;28;20056;-72
2022/06/16 01:41:51;;;;;;;5.72;3.00;;;15.70;99.90;;;;;;5073018;28;20433;-72
2022/06/16 01:44:24;;;;;;;7.80;3.13;;;15.60;99.90;;;;;;5073330;28;20044;-72
2022/06/16 01:47:06;;;;;;;7.13;3.47;;;15.70;99.90;;;;;;5072791;28;20098;-72
2022/06/16 01:49:37;;;;;;;5.22;2.90;;;15.80;99.90;;;;;;5073803;28;20049;-72
2022/06/16 01:52:17;;;;;;;6.13;3.20;;;15.80;99.90;;;;;;5073346;28;20101;-72
2022/06/16 01:54:51;;;;;;;6.68;3.17;;;15.70;99.90;;;;;;5073532;28;20037;-72
2022/06/16 01:57:37;;;;;;;8.15;3.70;;;15.80;99.90;;;;;;5055878;28;20052;-72
2022/06/16 02:00:22;;;;;;;6.23;2.87;;;15.80;99.90;;;;;;5073431;28;20078;-72
2022/06/16 02:02:54;;;;;;;8.45;3.30;;;15.80;99.90;;;;;;5073418;28;20442;-72
2022/06/16 02:05:26;;;;;;;6.85;3.20;;;15.70;99.90;;;;;;5073266;28;20056;-72
2022/06/16 02:08:00;;;;;;;7.88;3.10;;;15.60;99.90;;;;;;5073550;28;20037;-72
2022/06/16 02:10:33;;;;;;;5.78;3.03;;;15.70;99.90;;;;;;5072228;28;20048;-72
2022/06/16 02:13:04;;;;;;;9.45;3.17;;;15.70;99.90;;;;;;5055591;28;20060;-72
2022/06/16 02:15:52;;;;;;;8.13;3.08;;;15.80;99.90;;;;;;5072415;28;20063;-72
2022/06/16 02:18:23;;;;;;;6.43;3.20;;;15.80;99.90;;;;;;5051800;28;20117;-72
2022/06/16 02:21:12;;;;;;;5.20;2.97;;;15.80;99.90;;;;;;5073311;28;20075;-72
2022/06/16 02:23:38;;;;;;;8.48;2.95;;;15.80;99.90;;;;;;5073069;28;20044;-72
2022/06/16 02:26:04;;;;;;;5.97;2.85;;;15.80;99.90;;;;;;5073018;28;20071;-73
2022/06/16 02:28:29;;;;;;;6.57;3.35;;;15.80;99.90;;;;;;5073276;28;20057;-72
2022/06/16 02:31:28;;;;;;;4.40;2.92;;;15.70;99.90;;;;;;5072118;28;20474;-72
2022/06/16 02:34:08;;;;;;;7.20;3.13;;;15.70;99.90;;;;;;5073169;28;20094;-73
2022/06/16 02:36:44;;;;;;;6.97;3.33;;;15.70;99.90;;;;;;5072920;28;20568;-72
2022/06/16 02:39:46;;;;;;;9.00;3.53;;;15.70;99.90;;;;;;5073096;28;20049;-72
2022/06/16 02:42:36;;;;;;;5.82;2.92;;;15.70;99.90;;;;;;5072075;28;20045;-72
2022/06/16 02:45:26;;;;;;;9.68;3.28;;;15.60;99.90;;;;;;5073718;28;20502;-72
2022/06/16 02:48:01;;;;;;;7.88;3.58;;;15.50;99.90;;;;;;5075954;28;20557;-72
2022/06/16 02:50:51;;;;;;;5.40;3.33;;;15.40;99.90;;;;;;5092703;28;20219;-72
2022/06/16 02:56:21;;;;;;;6.32;3.22;;;15.30;99.90;;;;;;5075305;28;20093;-72
2022/06/16 02:58:48;;;;;;;5.63;3.20;;;15.20;99.90;;;;;;5074856;28;20480;-72
2022/06/16 03:01:14;;;;;;;9.13;3.50;;;15.10;99.90;;;;;;5074694;28;20502;-72
2022/06/16 03:03:40;;;;;;;6.82;3.25;;;15.20;99.90;;;;;;5074564;28;20095;-72
2022/06/16 03:06:06;;;;;;;10.68;3.25;;;15.10;99.90;;;;;;5075338;28;20145;-72
2022/06/16 03:08:41;;;;;;;7.18;3.40;;;15.20;99.90;;;;;;5076377;28;20049;-72
2022/06/16 03:11:08;;;;;;;7.00;3.10;;;15.30;99.90;;;;;;5076247;28;20052;-73
2022/06/16 03:13:34;;;;;;;4.82;3.17;;;15.20;99.90;;;;;;5076386;28;20063;-73
2022/06/16 03:16:02;;;;;;;7.28;3.20;;;15.10;99.90;;;;;;5075077;28;20127;-73
2022/06/16 03:18:28;;;;;;;7.32;3.55;;;15.10;99.90;;;;;;5075303;28;20114;-72
2022/06/16 03:20:54;;;;;;;5.68;3.20;;;15.10;99.90;;;;;;5076392;28;20045;-72
2022/06/16 03:23:20;;;;;;;5.63;3.40;;;15.10;99.90;;;;;;5091991;28;20056;-72
2022/06/16 03:25:46;;;;;;;8.25;3.22;;;15.10;99.90;;;;;;5075078;28;20147;-72
2022/06/16 03:28:13;;;;;;;5.47;3.33;;;15.10;99.90;;;;;;5074836;28;20048;-72
2022/06/16 03:30:40;;;;;;;9.05;4.05;;;15.00;99.90;;;;;;5075681;28;20071;-72
2022/06/16 03:33:08;;;;;;;8.48;3.83;;;15.00;99.90;;;;;;5076103;28;20044;-72
2022/06/16 03:35:34;;;;;;;6.53;3.63;;;15.10;99.90;;;;;;5076186;28;20044;-72
2022/06/16 03:38:04;;;;;;;6.22;2.97;;;15.20;99.90;;;;;;5075915;28;20174;-72
2022/06/16 03:40:30;;;;;;;5.05;3.30;;;15.30;99.90;;;;;;5075723;28;20053;-72
2022/06/16 03:42:55;;;;;;;8.32;3.10;;;15.30;99.90;;;;;;5074963;28;20045;-72
2022/06/16 03:45:21;;;;;;;5.57;3.28;;;15.30;99.90;;;;;;5075257;28;20052;-72
2022/06/16 03:47:48;;;;;;;5.93;3.42;;;15.20;99.90;;;;;;5075288;28;20052;-73
2022/06/16 03:50:16;;;;;;;7.50;3.08;;;15.30;99.90;;;;;;5075390;28;20063;-72
2022/06/16 03:52:42;;;;;;;7.35;3.17;;;15.30;99.90;;;;;;5075491;28;20052;-72
2022/06/16 03:55:08;;;;;;;5.63;3.10;;;15.40;99.90;;;;;;5075708;28;20383;-72
2022/06/16 03:57:34;;;;;;;6.22;3.53;;;15.40;99.90;;;;;;5090301;28;20052;-73
2022/06/16 04:00:00;;;;;;;5.90;3.17;;;15.50;99.90;;;;;;5057917;28;20053;-72
2022/06/16 04:02:25;;;;;;;8.85;3.05;;;15.40;99.90;;;;;;5074266;28;20105;-72
2022/06/16 04:04:51;;;;;;;8.00;3.63;;;15.40;99.90;;;;;;5074267;28;20131;-72
2022/06/16 04:07:17;;;;;;;5.45;3.50;;;15.40;99.90;;;;;;5059004;28;20134;-74
2022/06/16 04:09:43;;;;;;;5.35;3.25;;;15.40;99.90;;;;;;5053733;28;20044;-73
2022/06/16 04:12:15;;;;;;;9.43;3.33;;;15.50;99.90;;;;;;5054054;28;20049;-72
2022/06/16 04:14:40;;;;;;;4.82;3.03;;;15.40;99.90;;;;;;5070830;28;20064;-72
2022/06/16 04:17:06;;;;;;;5.25;3.40;;;15.40;99.90;;;;;;5054347;28;20049;-72
2022/06/16 04:19:32;;;;;;;8.88;3.80;;;15.40;99.90;;;;;;5037547;28;20057;-72
2022/06/16 04:21:57;;;;;;;5.00;3.35;;;15.50;99.90;;;;;;5070547;28;20049;-72
2022/06/16 04:24:23;;;;;;;5.90;3.17;;;15.50;99.90;;;;;;5070552;28;20045;-72
2022/06/16 04:26:54;;;;;;;8.57;3.63;;;15.60;99.90;;;;;;5070233;28;20136;-73
2022/06/16 04:29:20;;;;;;;5.90;3.28;;;15.60;99.90;;;;;;5070492;28;20057;-72
2022/06/16 04:31:46;;;;;;;7.15;3.58;;;15.80;99.90;;;;;;5070573;28;20059;-72
2022/06/16 04:34:13;;;;;;;6.22;4.28;;;15.90;99.90;;;;;;5070665;28;20400;-72
2022/06/16 04:36:39;;;;;;;6.82;3.30;;;16.00;99.90;;;;;;5070590;28;20361;-72
2022/06/16 04:39:05;;;;;;;7.60;3.55;;;16.10;99.90;;;;;;5070378;28;20052;-72
2022/06/16 04:41:31;;;;;;;7.72;4.40;;;16.30;99.90;;;;;;5070030;28;20091;-74
2022/06/16 04:43:56;;;;;;;4.90;3.58;;;16.40;99.90;;;;;;5070391;28;20049;-72
2022/06/16 04:46:26;;;;;;;8.05;4.45;;;16.50;99.90;;;;;;5053114;28;20102;-72
2022/06/16 04:48:52;;;;;;;7.43;3.55;;;16.60;99.90;;;;;;5053984;28;20047;-72
2022/06/16 04:51:17;;;;;;;6.93;3.70;;;16.70;99.90;;;;;;5069303;28;20396;-72
2022/06/16 04:53:43;;;;;;;8.43;4.43;;;16.90;99.90;;;;;;5053507;28;20048;-72
2022/06/16 04:56:09;;;;;;;5.28;3.42;;;17.20;99.90;;;;;;5054050;28;20044;-73
2022/06/16 04:58:34;;;;;;;7.53;3.55;;;17.40;99.90;;;;;;5054470;28;20388;-72
2022/06/16 05:01:00;;;;;;;6.18;3.33;;;17.60;99.90;;;;;;5070097;28;20091;-72
2022/06/16 05:03:27;;;;;;;6.43;3.47;;;17.70;99.90;;;;;;5053244;28;20114;-72
2022/06/16 05:05:55;;;;;;;7.20;3.00;;;17.90;99.90;;;;;;5054264;28;20060;-72
2022/06/16 05:08:22;;;;;;;5.43;2.58;;;18.20;99.90;;;;;;5069049;28;20051;-72
2022/06/16 05:10:49;;;;;;;5.53;2.42;;;18.40;99.90;;;;;;5052633;28;20447;-72
2022/06/16 05:13:15;;;;;;;4.70;1.92;;;18.50;99.90;;;;;;5053839;28;20049;-73
2022/06/16 05:15:41;;;;;;;7.13;2.22;;;18.50;99.90;;;;;;5054153;28;20084;-73
2022/06/16 05:18:07;;;;;;;10.40;2.22;;;18.50;99.90;;;;;;5053945;28;20084;-73
2022/06/16 05:20:34;;;;;;;8.32;1.55;;;18.70;99.90;;;;;;5053553;28;20081;-73
2022/06/16 05:22:59;;;;;;;5.88;1.50;;;18.70;99.90;;;;;;5019883;28;20052;-72
2022/06/16 05:25:25;;;;;;;5.85;1.35;;;18.80;99.90;;;;;;5053547;28;20057;-72
2022/06/16 05:27:51;;;;;;;3.17;1.10;;;18.80;99.90;;;;;;5054324;28;20049;-72
2022/06/16 05:30:17;;;;;;;7.88;1.33;;;18.80;99.90;;;;;;5053916;28;20102;-72
2022/06/16 05:32:43;;;;;;;2.63;0.90;;;18.90;99.90;;;;;;5069197;28;20102;-72
2022/06/16 05:35:10;;;;;;;33.63;3.22;;;18.90;99.90;;;;;;5053727;28;20052;-72
2022/06/16 05:37:35;;;;;;;5.85;1.08;;;19.00;99.90;;;;;;5052037;28;20076;-72
2022/06/16 05:40:03;;;;;;;5.18;1.40;;;19.00;99.90;;;;;;5068727;28;20495;-73
2022/06/16 05:42:29;;;;;;;3.88;1.27;;;19.00;99.90;;;;;;5053194;28;20045;-72
2022/06/16 05:44:54;;;;;;;3.33;1.10;;;19.00;99.90;;;;;;5035573;28;20044;-72
2022/06/16 05:47:20;;;;;;;4.65;1.67;;;19.00;99.90;;;;;;5052879;28;20071;-72
2022/06/16 05:49:46;;;;;;;2.95;1.20;;;18.90;99.90;;;;;;5053137;28;20123;-72
2022/06/16 05:52:18;;;;;;;4.25;1.20;;;19.00;99.90;;;;;;5052923;28;20049;-72
2022/06/16 05:54:44;;;;;;;4.38;1.20;;;19.20;99.90;;;;;;5053333;28;20052;-72
2022/06/16 05:57:10;;;;;;;7.85;1.52;;;19.10;99.90;;;;;;5069047;28;20061;-72
2022/06/16 05:59:37;;;;;;;4.45;1.40;;;19.10;99.90;;;;;;5052295;28;20051;-72
2022/06/16 06:02:05;;;;;;;4.40;1.08;;;19.40;99.90;;;;;;5053554;28;20171;-72
2022/06/16 06:04:32;;;;;;;6.75;1.90;;;19.50;99.90;;;;;;5068808;28;20606;-72
2022/06/16 06:06:59;;;;;;;3.38;1.10;;;19.50;99.90;;;;;;5069140;28;20128;-73
2022/06/16 06:18:29;;;;;;;5.20;1.40;;;19.40;99.90;;;;;;5030828;28;20716;-73
2022/06/16 06:20:55;;;;;;;5.63;1.00;;;19.30;99.90;;;;;;5045677;28;20137;-72
2022/06/16 06:23:21;;;;;;;5.07;1.08;;;19.60;99.90;;;;;;5057151;28;20059;-72
2022/06/16 06:25:46;;;;;;;5.47;1.45;;;19.60;99.90;;;;;;5057116;28;20057;-72
2022/06/16 06:28:23;;;;;;;5.10;1.20;;;19.50;99.90;;;;;;5056198;28;20143;-72
2022/06/16 06:30:49;;;;;;;7.00;1.00;;;19.60;99.90;;;;;;5056470;28;20047;-73
2022/06/16 06:33:14;;;;;;;2.83;0.80;;;19.50;99.90;;;;;;5057292;28;20163;-72
2022/06/16 06:35:40;;;;;;;7.47;1.35;;;19.50;99.90;;;;;;5072824;28;20550;-72
2022/06/16 06:38:06;;;;;;;9.13;1.92;;;19.50;99.90;;;;;;5081029;28;20087;-73
2022/06/16 06:40:35;;;;;;;5.88;1.30;;;19.70;99.90;;;;;;5076026;28;20438;-73
2022/06/16 06:43:01;;;;;;;3.90;1.45;;;19.90;99.90;;;;;;5076983;28;20499;-72
2022/06/16 06:45:27;;;;;;;4.18;1.17;;;19.30;99.90;;;;;;5075735;28;20044;-72
2022/06/16 06:47:53;;;;;;;3.28;0.90;;;19.30;99.90;;;;;;5075974;28;20151;-72
2022/06/16 06:50:23;;;;;;;3.85;0.60;;;19.40;99.90;;;;;;5076225;28;20523;-72
2022/06/16 06:52:50;;;;;;;3.40;1.00;;;19.70;99.90;;;;;;5076653;28;20080;-74
2022/06/16 06:55:16;;;;;;;5.70;1.10;;;19.90;99.90;;;;;;5059223;28;20044;-72
2022/06/16 06:57:42;;;;;;;3.10;0.80;;;20.10;99.90;;;;;;5076605;28;20102;-72
2022/06/16 07:00:11;;;;;;;4.32;1.10;;;20.20;99.90;;;;;;5076705;28;20049;-70
2022/06/16 07:02:36;;;;;;;3.47;1.05;;;20.10;99.90;;;;;;5076443;28;20048;-72
2022/06/16 07:05:02;;;;;;;4.18;1.13;;;19.80;99.90;;;;;;5076434;28;20040;-69
2022/06/16 07:07:34;;;;;;;2.85;0.68;;;19.50;99.90;;;;;;5076227;28;20051;-70
2022/06/16 07:10:00;;;;;;;2.53;0.90;;;19.80;99.90;;;;;;5076438;28;20041;-69
2022/06/16 07:12:26;;;;;;;3.00;0.80;;;19.90;99.90;;;;;;5076666;28;20369;-69
2022/06/16 07:14:52;;;;;;;3.72;0.90;;;20.10;99.90;;;;;;5076235;28;20077;-70
2022/06/16 07:17:23;;;;;;;3.13;0.70;;;20.30;99.90;;;;;;5078830;28;20040;-71
2022/06/16 07:19:50;;;;;;;4.28;1.05;;;20.10;99.90;;;;;;5076573;28;20044;-71
2022/06/16 07:22:15;;;;;;;3.28;0.75;;;20.00;99.90;;;;;;5075689;28;20051;-70
2022/06/16 07:24:41;;;;;;;1.45;0.60;;;19.90;99.90;;;;;;5076031;28;20127;-69
2022/06/16 07:27:08;;;;;;;5.47;1.05;;;20.10;99.90;;;;;;5076367;28;20052;-69
2022/06/16 07:29:34;;;;;;;3.03;0.65;;;20.40;99.90;;;;;;5075921;28;20487;-69
2022/06/16 07:31:59;;;;;;;5.82;0.93;;;20.50;99.90;;;;;;5075777;28;20047;-69
2022/06/16 07:34:26;;;;;;;5.00;1.10;;;20.80;99.90;;;;;;5076124;28;20048;-69
2022/06/16 07:36:52;;;;;;;2.72;1.02;;;20.80;99.90;;;;;;5075854;28;20503;-69
2022/06/16 07:39:18;;;;;;;2.75;0.80;;;20.60;99.80;;;;;;5075342;28;20051;-69
2022/06/16 07:41:43;;;;;;;6.28;0.90;;;20.70;99.90;;;;;;5074588;28;20524;-69
2022/06/16 07:44:13;;;;;;;5.05;1.10;;;20.70;99.90;;;;;;5075865;28;20193;-69
2022/06/16 07:46:42;;;;;;;4.85;1.30;;;20.80;99.90;;;;;;5075594;28;20044;-69
2022/06/16 07:49:12;;;;;;;2.20;0.90;;;20.70;99.90;;;;;;5075706;28;20442;-70
2022/06/16 07:51:39;;;;;;;2.88;1.00;;;20.60;99.80;;;;;;5075512;28;20153;-68
2022/06/16 07:54:06;;;;;;;5.03;0.90;;;20.50;99.90;;;;;;5075707;28;20076;-70
2022/06/16 07:56:32;;;;;;;4.70;1.73;;;20.30;99.90;;;;;;5075480;28;20430;-70
2022/06/16 07:58:57;;;;;;;5.05;0.90;;;20.60;99.90;;;;;;5074458;28;20102;-70
2022/06/16 08:01:23;;;;;;;4.30;1.10;;;20.50;99.90;;;;;;5075481;28;20398;-70
2022/06/16 08:03:49;;;;;;;4.18;1.10;;;20.60;99.90;;;;;;5075115;28;20114;-70
2022/06/16 08:06:18;;;;;;;5.28;1.10;;;21.00;99.90;;;;;;5075603;28;20044;-70
2022/06/16 08:08:44;;;;;;;4.22;0.90;;;21.00;99.90;;;;;;5075422;28;20056;-70
2022/06/16 08:12:03;;;;;;;3.42;1.33;;;21.20;99.90;;;;;;5075303;28;20049;-70
2022/06/16 08:13:58;;;;;;;4.57;1.00;;;21.20;99.70;;;;;;5075153;28;20135;-70
2022/06/16 08:16:23;;;;;;;3.90;1.35;;;21.30;99.90;;;;;;5074960;28;20128;-71
2022/06/16 08:18:49;;;;;;;4.05;1.10;;;21.50;99.90;;;;;;5075211;28;20135;-70
2022/06/16 08:21:15;;;;;;;3.63;1.30;;;21.60;99.60;;;;;;5074743;28;20045;-69
2022/06/16 08:23:41;;;;;;;5.43;1.38;;;21.70;99.80;;;;;;5074158;28;20049;-70
2022/06/16 08:26:07;;;;;;;6.70;1.67;;;21.40;99.30;;;;;;5073272;28;20423;-70
2022/06/16 08:28:33;;;;;;;3.55;1.48;;;21.20;99.30;;;;;;5072508;28;20123;-72
2022/06/16 08:31:01;;;;;;;4.95;1.73;;;21.10;99.60;;;;;;5058767;28;20449;-70
2022/06/16 08:33:27;;;;;;;7.70;2.00;;;21.50;99.80;;;;;;5074598;28;20106;-68
2022/06/16 08:35:53;;;;;;;5.10;1.98;;;21.40;99.20;;;;;;5062721;28;20047;-71
2022/06/16 08:38:19;;;;;;;4.47;1.58;;;21.50;99.60;;;;;;5053677;28;20131;-70
2022/06/16 08:41:11;;;;;;;5.30;2.22;;;21.50;99.80;;;;;;5070216;28;20041;-87
2022/06/16 08:43:43;;;;;;;4.80;1.50;;;21.30;99.70;;;;;;5069767;28;20480;-88
2022/06/16 08:46:14;;;;;;;5.78;1.70;;;21.10;99.90;;;;;;5036350;28;20049;-85
2022/06/16 08:48:58;;;;;;;6.75;1.60;;;21.10;99.90;;;;;;5052913;28;20264;-71
2022/06/16 08:51:42;;;;;;;3.75;1.52;;;21.10;99.90;;;;;;5054472;28;20045;-70
2022/06/16 08:54:17;;;;;;;5.13;1.90;;;21.30;99.90;;;;;;5054600;28;20048;-70
2022/06/16 08:57:01;;;;;;;5.03;2.10;;;21.90;99.80;;;;;;5054426;28;20057;-70
2022/06/16 08:59:46;;;;;;;6.07;1.80;;;22.20;99.70;;;;;;5054322;28;20099;-70
2022/06/16 09:02:44;;;;;;;6.00;1.40;;;22.50;99.60;;;;;;5054234;28;20049;-72
2022/06/16 09:05:25;;;;;;;4.95;1.75;;;22.70;99.40;;;;;;5053048;28;20053;-68
2022/06/16 09:08:14;;;;;;;7.20;2.00;;;22.90;99.00;;;;;;5055009;28;20049;-93
2022/06/16 09:11:09;;;;;;;3.55;1.23;;;22.50;99.20;;;;;;5054225;28;20527;-92
2022/06/16 09:14:09;;;;;;;5.43;2.25;;;22.10;99.50;;;;;;5053079;28;20392;-83
2022/06/16 09:16:55;;;;;;;7.07;2.08;;;21.70;99.70;;;;;;5053142;28;20106;-83
2022/06/16 09:19:38;;;;;;;7.40;2.38;;;21.50;99.60;;;;;;5054312;28;20049;-83
2022/06/16 09:22:14;;;;;;;4.13;1.80;;;21.50;99.40;;;;;;5052956;28;20057;-83
2022/06/16 09:25:05;;;;;;;5.72;1.88;;;21.60;99.90;;;;;;5053216;28;20041;-83
2022/06/16 09:28:01;;;;;;;5.25;1.63;;;21.70;99.80;;;;;;5053177;28;20057;-83
2022/06/16 09:30:32;;;;;;;4.37;1.80;;;21.70;99.70;;;;;;5055054;28;20119;-83
2022/06/16 09:33:04;;;;;;;3.40;1.90;;;21.50;99.80;;;;;;5053811;28;20095;-82
2022/06/16 09:35:37;;;;;;;3.63;1.63;;;21.30;99.60;;;;;;5052552;28;20052;-83
2022/06/16 09:38:29;;;;;;;9.43;2.13;;;21.10;99.70;;;;;;5053050;28;20502;-84
2022/06/16 09:44:04;;;;;;;5.55;2.08;;;21.30;99.50;;;;;;5056552;28;20047;-89
2022/06/16 09:46:36;;;;;;;7.13;1.80;;;21.30;99.20;;;;;;5069466;28;20048;-69
2022/06/16 09:49:17;;;;;;;6.43;2.17;;;21.60;99.20;;;;;;5076170;28;20385;-79
2022/06/16 09:51:52;;;;;;;4.07;1.90;;;22.10;99.40;;;;;;5068734;28;20454;-70
2022/06/16 09:54:29;;;;;;;6.75;2.80;;;22.30;99.10;;;;;;5070899;28;20091;-76
2022/06/16 09:57:15;;;;;;;11.38;2.50;;;22.40;98.60;;;;;;5073864;28;20047;-89
2022/06/16 09:59:50;;;;;;;4.20;2.08;;;22.50;99.00;;;;;;5073711;28;20479;-73
2022/06/16 10:02:26;;;;;;;6.15;2.55;;;22.50;98.90;;;;;;5072550;28;20132;-76
2022/06/16 10:04:53;;;;;;;;;;;22.90;99.30;;;;;;5073882;28;20041;-70
2022/06/16 10:07:34;;;;;;;6.43;2.10;;;23.30;98.50;;;;;;5073573;28;19975;-70
2022/06/16 10:10:36;;;;;;;9.07;1.92;;;23.40;98.90;;;;;;5073277;28;20044;-69
2022/06/16 10:13:10;;;;;;;8.98;2.72;;;23.90;98.60;;;;;;5061040;28;20092;-70
2022/06/16 10:16:05;;;;;;;4.78;2.28;;;24.10;98.10;;;;;;5073412;28;20123;-87
2022/06/16 10:18:31;;;;;;;6.38;1.83;;;24.20;98.20;;;;;;5068186;28;20135;-86
2022/06/16 10:20:57;;;;;;;7.25;2.28;;;24.10;99.10;;;;;;5055631;28;20127;-87
2022/06/16 10:23:34;;;;;;;23.92;4.50;;;23.70;98.50;;;;;;5072156;28;20140;-87
2022/06/16 10:26:04;;;;;;;21.38;3.33;;;23.50;99.00;;;;;;5071834;28;20498;-87
2022/06/16 10:28:44;;;;;;;4.32;2.38;;;23.50;98.70;;;;;;5055588;28;20111;-69
2022/06/16 10:31:17;;;;;;;6.75;2.50;;;23.80;98.60;;;;;;5073224;28;20044;-75
2022/06/16 10:33:55;;;;;;;5.45;2.15;;;24.20;98.70;;;;;;5073347;28;20052;-68
2022/06/16 10:36:24;;;;;;;7.07;2.10;;;24.20;98.60;;;;;;5073073;28;20186;-69
2022/06/16 10:39:16;;;;;;;3.83;1.65;;;24.60;98.50;;;;;;5073494;28;20055;-69
2022/06/16 10:41:55;;;;;;;5.45;2.10;;;25.00;98.30;;;;;;5073235;28;20048;-70
2022/06/16 10:44:24;;;;;;;3.85;2.00;;;25.50;98.60;;;;;;5072840;28;20040;-70
2022/06/16 10:46:55;;;;;;;7.13;2.75;;;25.60;98.10;;;;;;5073180;28;20114;-70
2022/06/16 10:49:27;;;;;;;7.03;1.88;;;25.60;98.10;;;;;;5073138;28;20399;-70
2022/06/16 10:52:05;;;;;;;7.47;2.40;;;25.80;98.30;;;;;;5072279;28;20106;-71
2022/06/16 10:54:36;;;;;;;6.22;2.65;;;25.70;97.80;;;;;;5072874;28;20105;-70
2022/06/16 10:57:06;;;;;;;4.25;1.98;;;25.30;97.40;;;;;;5072854;28;20045;-70
2022/06/16 10:59:37;;;;;;;4.20;1.90;;;25.30;98.00;;;;;;5073473;28;20056;-71
2022/06/16 11:02:28;;;;;;;5.28;2.17;;;25.60;97.80;;;;;;5072756;28;20044;-70
2022/06/16 11:05:20;;;;;;;2.95;1.80;;;25.70;98.10;;;;;;5072898;28;20090;-71
2022/06/16 11:07:46;;;;;;;5.25;2.17;;;26.10;97.60;;;;;;5076447;28;20051;-70
2022/06/16 11:10:17;;;;;;;2.72;1.88;;;26.30;97.60;;;;;;5076495;28;20044;-71
2022/06/16 11:12:47;;;;;;;4.13;2.15;;;26.20;97.50;;;;;;5078134;28;20063;-71
2022/06/16 11:15:30;;;;;;;3.47;1.88;;;26.70;97.30;;;;;;5076277;28;20105;-69
2022/06/16 11:18:04;;;;;;;8.35;2.30;;;26.60;97.10;;;;;;5092394;28;20053;-70
2022/06/16 11:20:47;;;;;;;5.20;2.10;;;26.90;97.10;;;;;;5076414;28;20048;-69
2022/06/16 11:23:21;;;;;;;4.55;2.17;;;27.20;97.30;;;;;;5076384;28;20056;-71
2022/06/16 11:25:58;;;;;;;4.97;2.38;;;27.40;97.00;;;;;;5075827;28;20056;-69
2022/06/16 11:28:25;;;;;;;5.13;2.30;;;27.40;96.70;;;;;;5075899;28;20567;-70
2022/06/16 11:31:01;;;;;;;11.73;2.60;;;27.40;97.10;;;;;;5076219;28;20092;-70
2022/06/16 11:36:34;;;;;;;6.05;2.05;;;26.80;96.70;;;;;;5076146;28;20160;-69
2022/06/16 11:39:10;;;;;;;9.75;2.22;;;26.60;97.00;;;;;;5076139;28;20044;-68
2022/06/16 11:41:36;;;;;;;5.53;2.00;;;26.40;96.80;;;;;;5076360;28;20132;-69
2022/06/16 11:44:09;;;;;;;5.68;2.20;;;26.50;97.00;;;;;;5075872;28;20484;-68
2022/06/16 11:46:58;;;;;;;6.38;2.15;;;26.80;96.80;;;;;;5075791;28;20087;-69
2022/06/16 11:49:39;;;;;;;7.70;2.47;;;26.70;96.80;;;;;;5091750;28;20057;-69
2022/06/16 11:52:20;;;;;;;4.35;2.00;;;26.40;96.60;;;;;;5075134;28;20377;-69
2022/06/16 11:55:00;;;;;;;3.70;1.70;;;26.40;97.00;;;;;;5075660;28;20132;-71
2022/06/16 11:57:59;;;;;;;4.30;1.95;;;26.60;96.80;;;;;;5075658;28;20048;-69
2022/06/16 12:00:28;;;;;;;5.28;1.85;;;26.80;97.00;;;;;;5075349;28;20063;-69
2022/06/16 12:03:10;;;;;;;7.43;2.13;;;26.60;96.90;;;;;;5075467;28;20487;-69
2022/06/16 12:05:42;;;;;;;6.07;2.25;;;26.50;96.50;;;;;;5075610;28;20091;-69
2022/06/16 12:08:26;;;;;;;4.60;2.10;;;26.60;96.70;;;;;;5075403;28;20053;-78
2022/06/16 12:11:18;;;;;;;14.13;2.45;;;26.90;96.70;;;;;;5074433;28;20052;-80
2022/06/16 12:14:16;;;;;;;11.18;2.65;;;26.60;97.10;;;;;;5091295;28;20055;-73
2022/06/16 12:16:58;;;;;;;6.13;2.30;;;26.40;96.60;;;;;;5075336;28;20132;-73
2022/06/16 12:19:41;;;;;;;6.30;2.10;;;26.60;96.60;;;;;;5073847;28;20095;-73
2022/06/16 12:22:12;;;;;;;5.38;2.70;;;26.60;96.30;;;;;;5074562;28;20064;-73
2022/06/16 12:24:49;;;;;;;4.72;2.40;;;26.50;96.60;;;;;;5074911;28;20043;-73
2022/06/16 12:27:22;;;;;;;4.55;2.47;;;26.70;96.70;;;;;;5073582;28;20064;-69
2022/06/16 12:29:59;;;;;;;8.85;2.35;;;26.70;96.30;;;;;;5074968;28;20549;-69
2022/06/16 12:32:46;;;;;;;4.07;2.03;;;27.10;96.10;;;;;;5075019;28;20368;-69
2022/06/16 12:35:31;;;;;;;4.78;2.20;;;27.40;96.50;;;;;;5074794;28;20079;-69
2022/06/16 12:38:12;;;;;;;3.60;1.70;;;27.90;96.10;;;;;;5074616;28;20491;-69
2022/06/16 12:40:50;;;;;;;5.38;2.08;;;27.80;96.70;;;;;;5074966;28;20044;-69
2022/06/16 12:43:24;;;;;;;5.78;1.90;;;27.90;96.50;;;;;;5057220;28;20055;-84
2022/06/16 12:45:59;;;;;;;3.85;1.90;;;27.80;96.30;;;;;;5073581;28;20127;-86
2022/06/16 12:48:31;;;;;;;4.47;2.13;;;27.80;96.60;;;;;;5073910;28;20040;-86
2022/06/16 12:51:02;;;;;;;7.93;2.60;;;27.40;96.30;;;;;;5056385;28;20055;-86
2022/06/16 12:53:41;;;;;;;3.90;1.92;;;26.60;96.00;;;;;;5056877;28;20044;-69
2022/06/16 12:56:25;;;;;;;5.57;1.90;;;26.70;96.20;;;;;;5074328;28;20159;-76
2022/06/16 12:58:57;;;;;;;3.05;1.75;;;27.30;96.40;;;;;;5074647;28;20047;-69
2022/06/16 13:01:23;;;;;;;5.25;1.90;;;27.70;96.10;;;;;;5074196;28;20044;-69
2022/06/16 13:04:10;;;;;;;5.80;2.10;;;27.80;96.30;;;;;;5074402;28;20059;-67
2022/06/16 13:06:37;;;;;;;4.60;2.03;;;28.30;96.60;;;;;;5074425;28;20056;-70
2022/06/16 13:09:06;;;;;;;3.45;2.00;;;28.50;96.30;;;;;;5074186;28;20056;-71
2022/06/16 13:11:41;;;;;;;5.13;2.53;;;28.70;96.00;;;;;;5074469;28;20048;-70
2022/06/16 13:14:30;;;;;;;3.88;2.00;;;29.10;96.30;;;;;;5072915;28;20079;-68
2022/06/16 13:16:59;;;;;;;5.68;2.20;;;29.50;96.50;;;;;;5062965;28;20542;-70
2022/06/16 13:19:32;;;;;;;4.05;1.73;;;29.70;95.80;;;;;;5072926;28;20044;-69
2022/06/16 13:22:02;;;;;;;3.47;1.90;;;29.70;95.80;;;;;;5073547;28;20052;-70
2022/06/16 13:24:57;;;;;;;4.70;1.73;;;29.70;96.20;;;;;;5074075;28;20080;-70
2022/06/16 13:27:39;;;;;;;3.92;2.05;;;29.90;96.20;;;;;;5070870;28;20084;-70
2022/06/16 13:30:05;;;;;;;5.80;2.38;;;29.80;95.70;;;;;;5074139;28;20135;-70
2022/06/16 13:32:40;;;;;;;3.70;1.88;;;29.70;95.80;;;;;;5074051;28;20086;-69
2022/06/16 13:35:11;;;;;;;6.75;2.35;;;29.50;95.80;;;;;;5073762;28;20041;-70
2022/06/16 13:37:44;;;;;;;4.72;2.22;;;29.00;95.90;;;;;;5073285;28;20048;-69
2022/06/16 13:40:09;;;;;;;3.95;1.90;;;29.20;95.70;;;;;;5073651;28;20049;-68
2022/06/16 13:43:03;;;;;;;3.92;2.30;;;29.30;95.60;;;;;;5073616;28;20050;-68